createdAt,value
2022-11-05T00:00:44.545Z,0.00
2022-11-05T00:01:44.619Z,0.00
2022-11-05T00:02:44.508Z,0.00
2022-11-05T00:03:44.512Z,0.00
2022-11-05T00:04:44.496Z,0.00
2022-11-05T00:05:44.465Z,0.00
2022-11-05T00:06:44.452Z,0.00
2022-11-05T00:07:44.444Z,0.00
2022-11-05T00:08:44.427Z,0.00
2022-11-05T00:09:44.411Z,0.00
2022-11-05T00:10:44.445Z,0.00
2022-11-05T00:11:44.389Z,0.00
2022-11-05T00:12:44.375Z,0.00
2022-11-05T00:13:44.387Z,0.00
2022-11-05T00:14:44.378Z,0.00
2022-11-05T00:15:44.962Z,0.00
2022-11-05T00:16:44.333Z,0.00
2022-11-05T00:17:44.328Z,0.00
2022-11-05T00:18:44.306Z,0.00
2022-11-05T00:19:44.310Z,0.00
2022-11-05T00:20:44.963Z,0.00
2022-11-05T00:21:44.275Z,0.00
2022-11-05T00:22:44.263Z,0.00
2022-11-05T00:23:44.239Z,0.00
2022-11-05T00:24:44.233Z,0.00
2022-11-05T00:25:44.857Z,0.00
2022-11-05T00:26:44.208Z,0.00
2022-11-05T00:27:44.180Z,0.00
2022-11-05T00:28:44.182Z,0.00
2022-11-05T00:29:44.175Z,0.00
2022-11-05T00:30:44.852Z,0.00
2022-11-05T00:31:44.134Z,0.00
2022-11-05T00:32:44.120Z,0.00
2022-11-05T00:33:44.140Z,0.00
2022-11-05T00:34:44.102Z,0.00
2022-11-05T00:35:44.949Z,0.00
2022-11-05T00:36:44.066Z,0.00
2022-11-05T00:37:49.640Z,0.00
2022-11-05T00:38:44.048Z,0.00
2022-11-05T00:39:44.037Z,0.00
2022-11-05T00:40:44.469Z,0.00
2022-11-05T00:41:44.006Z,0.00
2022-11-05T00:42:43.990Z,0.00
2022-11-05T00:43:44.045Z,0.00
2022-11-05T00:44:45.015Z,0.00
2022-11-05T00:45:44.288Z,0.00
2022-11-05T00:46:43.947Z,0.00
2022-11-05T00:47:43.935Z,0.00
2022-11-05T00:48:43.915Z,0.00
2022-11-05T00:49:43.899Z,0.00
2022-11-05T00:50:44.856Z,0.00
2022-11-05T00:51:43.876Z,0.00
2022-11-05T00:52:43.874Z,0.00
2022-11-05T00:53:43.855Z,0.00
2022-11-05T00:54:43.839Z,0.00
2022-11-05T00:55:43.833Z,0.00
2022-11-05T00:56:43.822Z,0.00
2022-11-05T00:57:43.793Z,0.00
2022-11-05T00:58:43.810Z,0.00
2022-11-05T00:59:43.775Z,0.00
2022-11-05T01:00:43.763Z,0.00
2022-11-05T01:01:43.875Z,0.00
2022-11-05T01:02:43.835Z,0.00
2022-11-05T01:03:48.827Z,0.00
2022-11-05T01:04:43.725Z,0.00
2022-11-05T01:05:43.701Z,0.00
2022-11-05T01:06:43.681Z,0.00
2022-11-05T01:07:43.673Z,0.00
2022-11-05T01:08:43.657Z,0.00
2022-11-05T01:09:43.642Z,0.00
2022-11-05T01:10:43.651Z,0.00
2022-11-05T01:11:43.611Z,0.00
2022-11-05T01:12:43.611Z,0.00
2022-11-05T01:13:43.594Z,0.00
2022-11-05T01:14:43.590Z,0.00
2022-11-05T01:15:43.575Z,0.00
2022-11-05T01:16:43.564Z,0.00
2022-11-05T01:17:43.547Z,0.00
2022-11-05T01:18:43.526Z,0.00
2022-11-05T01:19:43.516Z,0.00
2022-11-05T01:20:43.499Z,0.00
2022-11-05T01:21:43.491Z,0.00
2022-11-05T01:22:43.483Z,0.00
2022-11-05T01:23:43.475Z,0.00
2022-11-05T01:24:43.445Z,0.00
2022-11-05T01:25:43.433Z,0.00
2022-11-05T01:26:43.429Z,0.00
2022-11-05T01:27:43.416Z,0.00
2022-11-05T01:28:43.522Z,0.00
2022-11-05T01:29:43.391Z,0.00
2022-11-05T01:30:43.378Z,0.00
2022-11-05T01:31:43.376Z,0.00
2022-11-05T01:32:43.348Z,0.00
2022-11-05T01:33:43.346Z,0.00
2022-11-05T01:34:43.326Z,0.00
2022-11-05T01:35:43.312Z,0.00
2022-11-05T01:36:43.303Z,0.00
2022-11-05T01:37:43.286Z,0.00
2022-11-05T01:38:43.274Z,0.00
2022-11-05T01:39:43.259Z,0.00
2022-11-05T01:40:43.267Z,0.00
2022-11-05T01:41:43.236Z,0.00
2022-11-05T01:42:43.216Z,0.00
2022-11-05T01:43:43.213Z,0.00
2022-11-05T01:44:43.190Z,0.00
2022-11-05T01:45:43.185Z,0.00
2022-11-05T01:46:43.175Z,0.00
2022-11-05T01:47:43.162Z,0.00
2022-11-05T01:48:43.141Z,0.00
2022-11-05T01:49:43.128Z,0.00
2022-11-05T01:50:43.114Z,0.00
2022-11-05T01:51:43.116Z,0.00
2022-11-05T01:52:43.096Z,0.00
2022-11-05T01:53:43.080Z,0.00
2022-11-05T01:54:43.078Z,0.00
2022-11-05T01:55:43.054Z,0.00
2022-11-05T01:56:43.056Z,0.00
2022-11-05T01:57:43.029Z,0.00
2022-11-05T01:58:43.032Z,0.00
2022-11-05T01:59:43.003Z,0.00
2022-11-05T02:00:43.004Z,0.00
2022-11-05T02:01:43.103Z,0.00
2022-11-05T02:02:43.158Z,0.00
2022-11-05T02:03:42.949Z,0.00
2022-11-05T02:04:42.957Z,0.00
2022-11-05T02:05:42.925Z,0.00
2022-11-05T02:06:42.919Z,0.00
2022-11-05T02:07:42.902Z,0.00
2022-11-05T02:08:42.884Z,0.00
2022-11-05T02:09:42.880Z,0.00
2022-11-05T02:10:42.874Z,0.00
2022-11-05T02:11:42.876Z,0.00
2022-11-05T02:12:42.848Z,0.00
2022-11-05T02:13:42.826Z,0.00
2022-11-05T02:14:42.818Z,0.00
2022-11-05T02:15:42.796Z,0.00
2022-11-05T02:16:42.799Z,0.00
2022-11-05T02:17:42.799Z,0.00
2022-11-05T02:18:42.771Z,0.00
2022-11-05T02:19:42.754Z,0.00
2022-11-05T02:20:44.818Z,0.00
2022-11-05T02:21:42.728Z,0.00
2022-11-05T02:22:42.733Z,0.00
2022-11-05T02:23:42.693Z,0.00
2022-11-05T02:24:42.684Z,0.00
2022-11-05T02:25:42.684Z,0.00
2022-11-05T02:26:42.655Z,0.00
2022-11-05T02:27:42.655Z,0.00
2022-11-05T02:28:42.646Z,0.00
2022-11-05T02:29:42.621Z,0.00
2022-11-05T02:30:42.607Z,0.00
2022-11-05T02:31:42.593Z,0.00
2022-11-05T02:32:42.582Z,0.00
2022-11-05T02:33:42.586Z,0.00
2022-11-05T02:34:42.575Z,0.00
2022-11-05T02:35:42.545Z,0.00
2022-11-05T02:36:42.531Z,0.00
2022-11-05T02:37:42.518Z,0.00
2022-11-05T02:38:42.504Z,0.00
2022-11-05T02:39:42.493Z,0.00
2022-11-05T02:40:42.509Z,0.00
2022-11-05T02:41:42.474Z,0.00
2022-11-05T02:42:42.463Z,0.00
2022-11-05T02:43:42.454Z,0.00
2022-11-05T02:44:42.429Z,0.00
2022-11-05T02:45:42.412Z,0.00
2022-11-05T02:46:42.419Z,0.00
2022-11-05T02:47:42.389Z,0.00
2022-11-05T02:48:42.386Z,0.00
2022-11-05T02:49:42.363Z,0.00
2022-11-05T02:50:42.357Z,0.00
2022-11-05T02:51:42.340Z,0.00
2022-11-05T02:52:42.359Z,0.00
2022-11-05T02:53:42.324Z,0.00
2022-11-05T02:54:42.306Z,0.00
2022-11-05T02:55:42.297Z,0.00
2022-11-05T02:56:42.274Z,0.00
2022-11-05T02:57:42.267Z,0.00
2022-11-05T02:58:42.262Z,0.00
2022-11-05T02:59:42.242Z,0.00
2022-11-05T03:00:42.228Z,0.00
2022-11-05T03:01:42.365Z,0.00
2022-11-05T03:02:42.415Z,0.00
2022-11-05T03:03:42.191Z,0.00
2022-11-05T03:04:42.188Z,0.00
2022-11-05T03:05:42.181Z,0.00
2022-11-05T03:06:42.151Z,0.00
2022-11-05T03:07:42.136Z,0.00
2022-11-05T03:08:42.132Z,0.00
2022-11-05T03:09:42.127Z,0.00
2022-11-05T03:10:42.134Z,0.00
2022-11-05T03:11:42.109Z,0.00
2022-11-05T03:12:42.081Z,0.00
2022-11-05T03:13:42.068Z,0.00
2022-11-05T03:14:42.049Z,0.00
2022-11-05T03:15:42.042Z,0.00
2022-11-05T03:16:42.037Z,0.00
2022-11-05T03:17:42.013Z,0.00
2022-11-05T03:18:41.999Z,0.00
2022-11-05T03:19:41.984Z,0.00
2022-11-05T03:20:41.968Z,0.00
2022-11-05T03:21:41.961Z,0.00
2022-11-05T03:22:41.960Z,0.00
2022-11-05T03:23:41.934Z,0.00
2022-11-05T03:24:41.923Z,0.00
2022-11-05T03:25:41.911Z,0.00
2022-11-05T03:26:41.899Z,0.00
2022-11-05T03:27:41.893Z,0.00
2022-11-05T03:28:41.884Z,0.00
2022-11-05T03:29:41.852Z,0.00
2022-11-05T03:30:41.865Z,0.00
2022-11-05T03:31:41.836Z,0.00
2022-11-05T03:32:41.827Z,0.00
2022-11-05T03:33:41.816Z,0.00
2022-11-05T03:34:41.844Z,0.00
2022-11-05T03:35:41.790Z,0.00
2022-11-05T03:36:41.770Z,0.00
2022-11-05T03:37:41.768Z,0.00
2022-11-05T03:38:41.749Z,0.00
2022-11-05T03:39:41.733Z,0.00
2022-11-05T03:40:41.733Z,0.00
2022-11-05T03:41:41.711Z,0.00
2022-11-05T03:42:41.708Z,0.00
2022-11-05T03:43:41.680Z,0.00
2022-11-05T03:44:41.666Z,0.00
2022-11-05T03:45:41.667Z,0.00
2022-11-05T03:46:41.659Z,0.00
2022-11-05T03:47:41.632Z,0.00
2022-11-05T03:48:41.699Z,0.00
2022-11-05T03:49:41.647Z,0.00
2022-11-05T03:50:41.853Z,0.00
2022-11-05T03:51:41.583Z,0.00
2022-11-05T03:52:41.576Z,0.00
2022-11-05T03:53:41.588Z,0.00
2022-11-05T03:54:41.547Z,0.00
2022-11-05T03:55:41.530Z,0.00
2022-11-05T03:56:41.527Z,0.00
2022-11-05T03:57:41.506Z,0.00
2022-11-05T03:58:41.524Z,0.00
2022-11-05T03:59:41.483Z,0.00
2022-11-05T04:00:41.474Z,0.00
2022-11-05T04:01:41.514Z,0.00
2022-11-05T04:02:41.549Z,0.00
2022-11-05T04:03:41.436Z,0.00
2022-11-05T04:04:41.451Z,0.00
2022-11-05T04:05:41.413Z,0.00
2022-11-05T04:06:41.401Z,0.00
2022-11-05T04:07:41.381Z,0.00
2022-11-05T04:08:41.362Z,0.00
2022-11-05T04:09:41.358Z,0.00
2022-11-05T04:10:41.361Z,0.00
2022-11-05T04:11:41.331Z,0.00
2022-11-05T04:12:41.325Z,0.00
2022-11-05T04:13:41.310Z,0.00
2022-11-05T04:14:41.299Z,0.00
2022-11-05T04:15:41.287Z,0.00
2022-11-05T04:16:41.290Z,0.00
2022-11-05T04:17:41.259Z,0.00
2022-11-05T04:18:41.241Z,0.00
2022-11-05T04:19:41.232Z,0.00
2022-11-05T04:20:41.225Z,0.00
2022-11-05T04:21:41.212Z,0.00
2022-11-05T04:22:41.203Z,0.00
2022-11-05T04:23:41.199Z,0.00
2022-11-05T04:24:41.170Z,0.00
2022-11-05T04:25:41.153Z,0.00
2022-11-05T04:26:41.143Z,0.00
2022-11-05T04:27:41.140Z,0.00
2022-11-05T04:28:41.125Z,0.00
2022-11-05T04:29:41.099Z,0.00
2022-11-05T04:30:41.091Z,0.00
2022-11-05T04:31:41.079Z,0.00
2022-11-05T04:32:41.065Z,0.00
2022-11-05T04:33:41.055Z,0.00
2022-11-05T04:34:41.049Z,0.00
2022-11-05T04:35:41.120Z,0.00
2022-11-05T04:36:41.012Z,0.00
2022-11-05T04:37:41.007Z,0.00
2022-11-05T04:38:40.994Z,0.00
2022-11-05T04:39:40.978Z,0.00
2022-11-05T04:40:41.118Z,0.00
2022-11-05T04:41:40.951Z,0.00
2022-11-05T04:42:40.945Z,0.00
2022-11-05T04:43:40.930Z,0.00
2022-11-05T04:44:40.931Z,0.00
2022-11-05T04:45:41.049Z,0.00
2022-11-05T04:46:40.899Z,0.00
2022-11-05T04:47:40.874Z,0.00
2022-11-05T04:48:40.877Z,0.00
2022-11-05T04:49:40.880Z,0.00
2022-11-05T04:50:40.843Z,0.00
2022-11-05T04:51:40.837Z,0.00
2022-11-05T04:52:40.827Z,0.00
2022-11-05T04:53:40.801Z,0.00
2022-11-05T04:54:40.792Z,0.00
2022-11-05T04:55:40.842Z,0.00
2022-11-05T04:56:40.779Z,0.00
2022-11-05T04:57:40.757Z,0.00
2022-11-05T04:58:40.745Z,0.00
2022-11-05T04:59:40.735Z,0.00
2022-11-05T05:00:40.994Z,0.00
2022-11-05T05:01:40.864Z,0.00
2022-11-05T05:02:40.694Z,0.00
2022-11-05T05:03:40.677Z,0.00
2022-11-05T05:04:40.674Z,0.00
2022-11-05T05:05:40.783Z,0.00
2022-11-05T05:06:40.637Z,0.00
2022-11-05T05:07:40.626Z,0.00
2022-11-05T05:08:40.636Z,0.00
2022-11-05T05:09:40.600Z,0.00
2022-11-05T05:10:40.598Z,0.00
2022-11-05T05:11:40.574Z,0.00
2022-11-05T05:12:40.569Z,0.00
2022-11-05T05:13:40.550Z,0.00
2022-11-05T05:14:40.536Z,0.00
2022-11-05T05:15:40.536Z,0.00
2022-11-05T05:16:40.524Z,0.00
2022-11-05T05:17:40.500Z,0.00
2022-11-05T05:18:45.922Z,0.00
2022-11-05T05:19:40.479Z,0.00
2022-11-05T05:20:40.464Z,0.00
2022-11-05T05:21:40.529Z,0.00
2022-11-05T05:22:40.469Z,0.00
2022-11-05T05:23:40.431Z,0.00
2022-11-05T05:24:40.423Z,0.00
2022-11-05T05:25:40.411Z,0.00
2022-11-05T05:26:40.388Z,0.00
2022-11-05T05:27:40.387Z,0.00
2022-11-05T05:28:40.373Z,0.00
2022-11-05T05:29:40.360Z,0.00
2022-11-05T05:30:40.333Z,0.00
2022-11-05T05:31:40.330Z,0.00
2022-11-05T05:32:40.326Z,0.00
2022-11-05T05:33:40.294Z,0.00
2022-11-05T05:34:40.295Z,0.00
2022-11-05T05:35:40.278Z,0.00
2022-11-05T05:36:40.256Z,0.00
2022-11-05T05:37:40.246Z,0.00
2022-11-05T05:38:40.241Z,0.00
2022-11-05T05:39:40.235Z,0.00
2022-11-05T05:40:40.225Z,0.00
2022-11-05T05:41:40.201Z,0.00
2022-11-05T05:42:43.159Z,0.00
2022-11-05T05:43:40.176Z,0.00
2022-11-05T05:44:40.171Z,0.00
2022-11-05T05:45:40.150Z,0.00
2022-11-05T05:46:40.144Z,0.00
2022-11-05T05:47:40.124Z,0.00
2022-11-05T05:48:40.105Z,0.00
2022-11-05T05:49:40.098Z,0.00
2022-11-05T05:50:40.038Z,0.00
2022-11-05T05:51:40.079Z,0.00
2022-11-05T05:52:40.079Z,0.00
2022-11-05T05:53:40.004Z,0.00
2022-11-05T05:54:43.040Z,0.00
2022-11-05T05:55:39.975Z,0.00
2022-11-05T05:56:40.237Z,0.00
2022-11-05T05:57:39.964Z,0.00
2022-11-05T05:58:39.940Z,0.00
2022-11-05T05:59:39.914Z,0.00
2022-11-05T06:00:39.919Z,0.00
2022-11-05T06:01:40.089Z,0.00
2022-11-05T06:02:39.974Z,0.00
2022-11-05T06:03:39.865Z,0.00
2022-11-05T06:04:39.861Z,0.00
2022-11-05T06:05:39.840Z,0.00
2022-11-05T06:06:39.838Z,0.00
2022-11-05T06:07:39.813Z,0.00
2022-11-05T06:08:39.802Z,0.00
2022-11-05T06:09:39.798Z,0.00
2022-11-05T06:10:39.827Z,0.00
2022-11-05T06:11:39.763Z,0.00
2022-11-05T06:12:39.755Z,0.00
2022-11-05T06:13:39.747Z,0.00
2022-11-05T06:14:39.732Z,0.00
2022-11-05T06:15:39.721Z,5.62
2022-11-05T06:16:39.716Z,5.62
2022-11-05T06:17:39.692Z,5.62
2022-11-05T06:18:39.687Z,5.62
2022-11-05T06:19:39.672Z,5.62
2022-11-05T06:20:39.662Z,11.25
2022-11-05T06:21:39.638Z,11.25
2022-11-05T06:22:39.637Z,11.25
2022-11-05T06:23:39.617Z,11.25
2022-11-05T06:24:39.602Z,16.88
2022-11-05T06:25:41.364Z,16.88
2022-11-05T06:26:39.601Z,22.50
2022-11-05T06:27:39.563Z,22.50
2022-11-05T06:28:39.575Z,22.50
2022-11-05T06:29:39.538Z,28.12
2022-11-05T06:30:39.541Z,28.12
2022-11-05T06:31:39.529Z,33.75
2022-11-05T06:32:39.504Z,33.75
2022-11-05T06:33:39.490Z,39.38
2022-11-05T06:34:39.495Z,39.38
2022-11-05T06:35:39.470Z,45.00
2022-11-05T06:36:39.447Z,45.00
2022-11-05T06:37:39.452Z,50.62
2022-11-05T06:38:39.429Z,50.62
2022-11-05T06:39:39.421Z,56.25
2022-11-05T06:40:39.422Z,61.88
2022-11-05T06:42:03.966Z,61.88
2022-11-05T06:42:39.406Z,67.50
2022-11-05T06:43:39.358Z,73.12
2022-11-05T06:44:39.356Z,73.12
2022-11-05T06:45:39.333Z,84.38
2022-11-05T06:46:40.607Z,90.00
2022-11-05T06:47:39.322Z,95.62
2022-11-05T06:48:39.301Z,101.25
2022-11-05T06:49:39.295Z,106.88
2022-11-05T06:50:39.296Z,112.50
2022-11-05T06:51:39.268Z,123.75
2022-11-05T06:52:41.237Z,129.38
2022-11-05T06:53:39.242Z,135.00
2022-11-05T06:54:39.238Z,140.62
2022-11-05T06:55:39.207Z,151.88
2022-11-05T06:56:39.213Z,157.50
2022-11-05T06:57:39.214Z,163.12
2022-11-05T06:58:39.181Z,168.75
2022-11-05T06:59:39.170Z,180.00
2022-11-05T07:00:39.254Z,185.62
2022-11-05T07:01:39.301Z,196.88
2022-11-05T07:02:39.123Z,202.50
2022-11-05T07:03:39.108Z,213.75
2022-11-05T07:04:39.127Z,225.00
2022-11-05T07:05:39.094Z,230.62
2022-11-05T07:06:39.070Z,236.25
2022-11-05T07:07:39.053Z,247.50
2022-11-05T07:08:39.053Z,253.12
2022-11-05T07:09:39.036Z,253.12
2022-11-05T07:10:39.029Z,264.38
2022-11-05T07:11:39.011Z,270.00
2022-11-05T07:12:38.997Z,281.25
2022-11-05T07:13:38.989Z,292.50
2022-11-05T07:14:38.992Z,292.50
2022-11-05T07:15:38.976Z,303.75
2022-11-05T07:16:38.957Z,315.00
2022-11-05T07:17:38.942Z,320.62
2022-11-05T07:18:38.924Z,337.50
2022-11-05T07:19:38.904Z,343.12
2022-11-05T07:20:38.898Z,348.75
2022-11-05T07:21:38.892Z,365.62
2022-11-05T07:22:38.876Z,376.88
2022-11-05T07:23:38.860Z,382.50
2022-11-05T07:24:38.844Z,388.12
2022-11-05T07:25:38.855Z,405.00
2022-11-05T07:26:38.811Z,427.50
2022-11-05T07:27:38.822Z,433.12
2022-11-05T07:28:38.943Z,438.75
2022-11-05T07:29:38.783Z,444.38
2022-11-05T07:30:38.780Z,438.75
2022-11-05T07:31:38.753Z,433.12
2022-11-05T07:32:38.746Z,450.00
2022-11-05T07:33:38.730Z,455.62
2022-11-05T07:34:38.730Z,466.88
2022-11-05T07:35:38.700Z,483.75
2022-11-05T07:36:38.694Z,495.00
2022-11-05T07:37:38.678Z,500.62
2022-11-05T07:38:38.680Z,528.75
2022-11-05T07:39:38.648Z,534.38
2022-11-05T07:40:38.657Z,528.75
2022-11-05T07:41:38.633Z,534.38
2022-11-05T07:42:38.613Z,545.62
2022-11-05T07:43:38.615Z,568.12
2022-11-05T07:44:38.603Z,596.25
2022-11-05T07:45:38.594Z,601.88
2022-11-05T07:46:38.577Z,613.12
2022-11-05T07:47:38.592Z,607.50
2022-11-05T07:48:38.564Z,624.38
2022-11-05T07:49:38.587Z,618.75
2022-11-05T07:50:38.520Z,618.75
2022-11-05T07:51:38.508Z,624.38
2022-11-05T07:52:38.507Z,624.38
2022-11-05T07:53:42.505Z,630.00
2022-11-05T07:54:38.462Z,635.62
2022-11-05T07:55:38.441Z,641.25
2022-11-05T07:56:38.476Z,652.50
2022-11-05T07:57:38.421Z,663.75
2022-11-05T07:58:38.439Z,680.62
2022-11-05T07:59:38.403Z,686.25
2022-11-05T08:00:38.579Z,697.50
2022-11-05T08:01:38.553Z,725.62
2022-11-05T08:02:38.587Z,736.88
2022-11-05T08:03:38.452Z,736.88
2022-11-05T08:04:38.359Z,742.50
2022-11-05T08:05:38.332Z,748.12
2022-11-05T08:06:38.351Z,753.75
2022-11-05T08:07:38.316Z,753.75
2022-11-05T08:08:38.283Z,736.88
2022-11-05T08:09:38.273Z,759.38
2022-11-05T08:10:38.286Z,765.00
2022-11-05T08:11:38.244Z,787.50
2022-11-05T08:12:38.228Z,804.38
2022-11-05T08:13:39.245Z,826.88
2022-11-05T08:14:38.209Z,866.25
2022-11-05T08:15:38.191Z,871.88
2022-11-05T08:16:38.214Z,877.50
2022-11-05T08:17:38.177Z,871.88
2022-11-05T08:18:38.152Z,860.62
2022-11-05T08:19:38.145Z,866.25
2022-11-05T08:20:38.133Z,894.38
2022-11-05T08:21:38.171Z,894.38
2022-11-05T08:22:38.127Z,888.75
2022-11-05T08:23:38.099Z,928.12
2022-11-05T08:24:38.084Z,956.25
2022-11-05T08:25:38.061Z,1001.25
2022-11-05T08:26:38.055Z,1023.75
2022-11-05T08:27:38.063Z,1074.38
2022-11-05T08:28:38.044Z,1080.00
2022-11-05T08:29:38.014Z,1125.00
2022-11-05T08:30:38.012Z,1164.38
2022-11-05T08:31:38.038Z,1141.88
2022-11-05T08:32:37.999Z,1141.88
2022-11-05T08:33:37.987Z,1153.12
2022-11-05T08:34:38.019Z,1164.38
2022-11-05T08:35:37.948Z,1147.50
2022-11-05T08:36:37.920Z,1153.12
2022-11-05T08:37:37.908Z,1130.62
2022-11-05T08:38:37.903Z,1119.38
2022-11-05T08:39:37.887Z,1192.50
2022-11-05T08:40:37.883Z,1243.12
2022-11-05T08:41:37.855Z,1310.62
2022-11-05T08:42:37.868Z,1406.25
2022-11-05T08:43:38.510Z,1451.25
2022-11-05T08:44:37.872Z,1501.88
2022-11-05T08:45:38.408Z,1524.38
2022-11-05T08:46:41.557Z,1513.12
2022-11-05T08:47:37.780Z,1440.00
2022-11-05T08:48:37.790Z,1333.12
2022-11-05T08:49:37.793Z,1271.25
2022-11-05T08:50:37.751Z,1209.38
2022-11-05T08:51:37.728Z,1164.38
2022-11-05T08:52:37.735Z,1141.88
2022-11-05T08:53:37.711Z,1125.00
2022-11-05T08:54:37.696Z,1074.38
2022-11-05T08:55:37.674Z,1068.75
2022-11-05T08:56:37.667Z,1046.25
2022-11-05T08:57:37.652Z,1018.12
2022-11-05T08:58:37.680Z,1012.50
2022-11-05T08:59:37.663Z,984.38
2022-11-05T09:00:37.618Z,1001.25
2022-11-05T09:01:37.734Z,973.12
2022-11-05T09:02:37.660Z,967.50
2022-11-05T09:03:37.578Z,961.88
2022-11-05T09:04:37.851Z,950.62
2022-11-05T09:05:37.548Z,945.00
2022-11-05T09:06:37.545Z,939.38
2022-11-05T09:07:37.532Z,916.88
2022-11-05T09:08:37.552Z,922.50
2022-11-05T09:09:37.511Z,928.12
2022-11-05T09:10:37.508Z,928.12
2022-11-05T09:12:05.223Z,939.38
2022-11-05T09:12:37.467Z,939.38
2022-11-05T09:13:37.478Z,928.12
2022-11-05T09:14:37.439Z,950.62
2022-11-05T09:15:37.426Z,956.25
2022-11-05T09:16:37.459Z,950.62
2022-11-05T09:17:37.398Z,967.50
2022-11-05T09:18:37.381Z,973.12
2022-11-05T09:19:40.053Z,978.75
2022-11-05T09:20:37.364Z,961.88
2022-11-05T09:21:37.348Z,990.00
2022-11-05T09:22:42.965Z,1029.38
2022-11-05T09:23:37.332Z,1085.62
2022-11-05T09:24:37.307Z,1113.75
2022-11-05T09:25:37.325Z,1108.12
2022-11-05T09:26:37.303Z,1181.25
2022-11-05T09:27:37.270Z,1260.00
2022-11-05T09:28:37.276Z,1338.75
2022-11-05T09:29:37.240Z,1355.62
2022-11-05T09:30:37.241Z,1395.00
2022-11-05T09:31:37.224Z,1395.00
2022-11-05T09:32:37.208Z,1440.00
2022-11-05T09:33:37.216Z,1456.88
2022-11-05T09:34:37.219Z,1456.88
2022-11-05T09:35:37.165Z,1462.50
2022-11-05T09:36:37.171Z,1513.12
2022-11-05T09:37:37.153Z,1535.62
2022-11-05T09:38:37.123Z,1535.62
2022-11-05T09:39:37.131Z,1535.62
2022-11-05T09:40:37.145Z,1530.00
2022-11-05T09:41:37.102Z,1513.12
2022-11-05T09:42:37.086Z,1541.25
2022-11-05T09:43:37.064Z,1591.88
2022-11-05T09:44:37.058Z,1631.25
2022-11-05T09:45:37.045Z,1530.00
2022-11-05T09:46:37.045Z,1642.50
2022-11-05T09:47:37.028Z,1670.62
2022-11-05T09:48:37.011Z,1687.50
2022-11-05T09:49:37.027Z,1693.12
2022-11-05T09:50:36.986Z,1726.88
2022-11-05T09:51:36.970Z,1771.88
2022-11-05T09:52:36.968Z,1636.88
2022-11-05T09:53:36.948Z,1766.25
2022-11-05T09:54:36.932Z,1783.12
2022-11-05T09:55:36.921Z,1783.12
2022-11-05T09:56:36.938Z,1935.00
2022-11-05T09:57:36.892Z,1608.75
2022-11-05T09:58:36.913Z,1816.88
2022-11-05T09:59:36.877Z,1839.38
2022-11-05T10:00:36.854Z,1726.88
2022-11-05T10:01:37.038Z,1856.25
2022-11-05T10:02:36.983Z,1923.75
2022-11-05T10:03:36.809Z,1951.88
2022-11-05T10:04:36.813Z,1895.62
2022-11-05T10:05:36.840Z,1951.88
2022-11-05T10:06:36.764Z,1991.25
2022-11-05T10:07:36.755Z,2019.38
2022-11-05T10:08:36.753Z,2030.62
2022-11-05T10:09:36.742Z,2008.12
2022-11-05T10:10:40.848Z,1968.75
2022-11-05T10:11:36.704Z,1991.25
2022-11-05T10:12:36.696Z,2013.75
2022-11-05T10:13:36.730Z,2030.62
2022-11-05T10:14:36.671Z,2008.12
2022-11-05T10:15:36.661Z,1980.00
2022-11-05T10:16:36.670Z,1980.00
2022-11-05T10:17:39.149Z,1951.88
2022-11-05T10:18:36.613Z,2002.50
2022-11-05T10:19:36.604Z,2053.12
2022-11-05T10:20:36.586Z,1963.12
2022-11-05T10:22:04.063Z,2030.62
2022-11-05T10:22:36.625Z,2081.25
2022-11-05T10:23:36.545Z,2103.75
2022-11-05T10:24:36.544Z,2160.00
2022-11-05T10:25:36.538Z,2205.00
2022-11-05T10:26:36.510Z,2210.62
2022-11-05T10:27:36.510Z,2250.00
2022-11-05T10:28:36.518Z,2250.00
2022-11-05T10:29:36.478Z,2306.25
2022-11-05T10:30:36.501Z,2098.12
2022-11-05T10:31:36.445Z,2205.00
2022-11-05T10:32:36.433Z,2221.88
2022-11-05T10:33:36.420Z,2317.50
2022-11-05T10:34:36.451Z,2205.00
2022-11-05T10:35:36.398Z,1884.38
2022-11-05T10:36:36.382Z,2036.25
2022-11-05T10:37:40.678Z,1338.75
2022-11-05T10:38:36.381Z,1653.75
2022-11-05T10:39:36.341Z,1794.38
2022-11-05T10:40:36.394Z,2025.00
2022-11-05T10:41:36.340Z,1951.88
2022-11-05T10:42:36.345Z,2188.12
2022-11-05T10:43:36.302Z,2041.88
2022-11-05T10:44:36.283Z,2064.38
2022-11-05T10:45:36.278Z,2379.38
2022-11-05T10:46:36.287Z,2401.88
2022-11-05T10:47:36.240Z,2565.00
2022-11-05T10:48:42.297Z,2407.50
2022-11-05T10:49:36.241Z,2216.25
2022-11-05T10:50:36.214Z,1451.25
2022-11-05T10:51:36.199Z,1513.12
2022-11-05T10:52:36.201Z,1749.38
2022-11-05T10:53:36.193Z,1231.88
2022-11-05T10:54:36.178Z,1001.25
2022-11-05T10:55:36.188Z,1012.50
2022-11-05T10:56:36.122Z,1018.12
2022-11-05T10:57:36.154Z,1035.00
2022-11-05T10:58:36.170Z,1170.00
2022-11-05T10:59:36.131Z,1220.62
2022-11-05T11:00:36.107Z,1299.38
2022-11-05T11:01:36.238Z,1186.88
2022-11-05T11:02:36.098Z,1310.62
2022-11-05T11:03:36.040Z,1569.38
2022-11-05T11:04:38.055Z,1597.50
2022-11-05T11:05:36.006Z,1490.62
2022-11-05T11:06:36.022Z,1873.12
2022-11-05T11:07:35.990Z,2368.12
2022-11-05T11:08:35.964Z,1963.12
2022-11-05T11:09:36.208Z,2356.88
2022-11-05T11:10:35.998Z,1811.25
2022-11-05T11:11:35.974Z,2030.62
2022-11-05T11:12:40.727Z,1890.00
2022-11-05T11:13:35.935Z,2300.62
2022-11-05T11:14:35.898Z,1850.62
2022-11-05T11:15:35.907Z,1923.75
2022-11-05T11:16:35.911Z,1890.00
2022-11-05T11:17:35.857Z,1766.25
2022-11-05T11:18:39.848Z,1771.88
2022-11-05T11:19:35.878Z,1766.25
2022-11-05T11:20:35.847Z,1569.38
2022-11-05T11:21:35.818Z,1597.50
2022-11-05T11:22:35.823Z,1659.38
2022-11-05T11:23:35.773Z,1636.88
2022-11-05T11:24:35.760Z,1760.62
2022-11-05T11:25:35.806Z,1783.12
2022-11-05T11:26:35.755Z,1755.00
2022-11-05T11:27:35.749Z,1749.38
2022-11-05T11:28:35.739Z,1670.62
2022-11-05T11:29:35.712Z,1670.62
2022-11-05T11:30:35.689Z,1715.62
2022-11-05T11:31:35.674Z,1715.62
2022-11-05T11:32:35.737Z,1603.12
2022-11-05T11:33:35.665Z,1518.75
2022-11-05T11:34:35.660Z,1490.62
2022-11-05T11:35:35.638Z,1468.12
2022-11-05T11:36:36.241Z,1468.12
2022-11-05T11:37:35.745Z,1445.62
2022-11-05T11:38:35.616Z,1423.12
2022-11-05T11:39:35.602Z,1423.12
2022-11-05T11:40:35.626Z,1434.38
2022-11-05T11:41:35.566Z,1434.38
2022-11-05T11:42:35.542Z,1479.38
2022-11-05T11:43:35.544Z,1496.25
2022-11-05T11:44:35.530Z,1535.62
2022-11-05T11:45:35.496Z,1575.00
2022-11-05T11:46:35.539Z,1603.12
2022-11-05T11:47:35.474Z,1985.62
2022-11-05T11:48:35.465Z,1845.00
2022-11-05T11:49:35.450Z,2002.50
2022-11-05T11:50:35.436Z,2446.88
2022-11-05T11:51:35.424Z,2311.88
2022-11-05T11:52:35.418Z,2013.75
2022-11-05T11:53:35.410Z,2784.38
2022-11-05T11:54:35.411Z,2632.50
2022-11-05T11:55:35.371Z,2688.75
2022-11-05T11:56:35.360Z,2739.38
2022-11-05T11:57:35.678Z,2643.75
2022-11-05T11:58:35.347Z,2615.62
2022-11-05T12:00:06.634Z,2660.62
2022-11-05T12:00:35.319Z,1850.62
2022-11-05T12:01:35.361Z,1873.12
2022-11-05T12:02:35.377Z,2261.25
2022-11-05T12:03:35.268Z,1828.12
2022-11-05T12:04:35.266Z,1777.50
2022-11-05T12:05:35.425Z,1771.88
2022-11-05T12:06:35.249Z,1575.00
2022-11-05T12:07:35.228Z,1473.75
2022-11-05T12:08:35.222Z,1344.38
2022-11-05T12:09:35.187Z,1316.25
2022-11-05T12:10:35.190Z,1271.25
2022-11-05T12:11:35.161Z,1153.12
2022-11-05T12:12:35.202Z,1080.00
2022-11-05T12:13:35.151Z,1141.88
2022-11-05T12:14:35.139Z,1035.00
2022-11-05T12:15:35.133Z,1254.38
2022-11-05T12:16:35.152Z,1192.50
2022-11-05T12:17:35.105Z,1130.62
2022-11-05T12:18:35.081Z,1175.62
2022-11-05T12:19:35.066Z,1231.88
2022-11-05T12:20:35.071Z,1198.12
2022-11-05T12:21:52.163Z,1141.88
2022-11-05T12:22:35.051Z,1108.12
2022-11-05T12:23:35.028Z,1085.62
2022-11-05T12:24:34.993Z,1057.50
2022-11-05T12:25:34.987Z,1051.88
2022-11-05T12:26:34.971Z,1074.38
2022-11-05T12:27:34.960Z,1113.75
2022-11-05T12:28:36.211Z,1175.62
2022-11-05T12:29:36.076Z,1181.25
2022-11-05T12:30:34.919Z,1164.38
2022-11-05T12:31:34.923Z,1153.12
2022-11-05T12:32:34.973Z,1158.75
2022-11-05T12:33:34.897Z,1153.12
2022-11-05T12:34:34.883Z,1141.88
2022-11-05T12:35:34.873Z,1130.62
2022-11-05T12:36:34.846Z,1119.38
2022-11-05T12:37:34.844Z,1108.12
2022-11-05T12:38:34.849Z,1108.12
2022-11-05T12:39:34.825Z,1108.12
2022-11-05T12:40:41.843Z,1113.75
2022-11-05T12:41:34.775Z,1119.38
2022-11-05T12:42:34.766Z,1130.62
2022-11-05T12:43:34.791Z,1125.00
2022-11-05T12:44:41.249Z,1125.00
2022-11-05T12:45:34.731Z,1125.00